sensor_id;sensor_type;location;lat;lon;timestamp;temperature;humidity
55173;DHT22;41061;52.822;6.860;2022-07-22T00:01:56;16.60;99.90
55173;DHT22;41061;52.822;6.860;2022-07-22T00:04:22;16.60;99.90
55173;DHT22;41061;52.822;6.860;2022-07-22T00:06:48;16.70;99.90
55173;DHT22;41061;52.822;6.860;2022-07-22T00:09:13;16.70;99.90
55173;DHT22;41061;52.822;6.860;2022-07-22T00:11:39;16.60;99.90
55173;DHT22;41061;52.822;6.860;2022-07-22T00:14:05;16.50;99.90
55173;DHT22;41061;52.822;6.860;2022-07-22T00:16:31;16.50;99.90
55173;DHT22;41061;52.822;6.860;2022-07-22T00:18:57;16.50;99.90
55173;DHT22;41061;52.822;6.860;2022-07-22T00:21:23;16.40;99.90
55173;DHT22;41061;52.822;6.860;2022-07-22T00:23:49;16.30;99.90
55173;DHT22;41061;52.822;6.860;2022-07-22T00:26:14;16.30;99.90
55173;DHT22;41061;52.822;6.860;2022-07-22T00:28:40;16.30;99.90
55173;DHT22;41061;52.822;6.860;2022-07-22T00:31:06;16.20;99.90
55173;DHT22;41061;52.822;6.860;2022-07-22T00:33:32;16.10;99.90
55173;DHT22;41061;52.822;6.860;2022-07-22T00:35:57;16.10;99.90
55173;DHT22;41061;52.822;6.860;2022-07-22T00:38:23;16.00;99.90
55173;DHT22;41061;52.822;6.860;2022-07-22T00:40:49;16.00;99.90
55173;DHT22;41061;52.822;6.860;2022-07-22T00:43:15;15.90;99.90
55173;DHT22;41061;52.822;6.860;2022-07-22T00:45:40;15.90;99.90
55173;DHT22;41061;52.822;6.860;2022-07-22T00:48:06;15.90;99.90
55173;DHT22;41061;52.822;6.860;2022-07-22T00:50:32;15.90;99.90
55173;DHT22;41061;52.822;6.860;2022-07-22T00:52:58;15.90;99.90
55173;DHT22;41061;52.822;6.860;2022-07-22T00:55:23;16.00;99.90
55173;DHT22;41061;52.822;6.860;2022-07-22T00:57:49;16.00;99.90
55173;DHT22;41061;52.822;6.860;2022-07-22T01:00:18;16.00;99.90
55173;DHT22;41061;52.822;6.860;2022-07-22T01:02:45;16.10;99.90
55173;DHT22;41061;52.822;6.860;2022-07-22T01:05:11;16.00;99.90
55173;DHT22;41061;52.822;6.860;2022-07-22T01:07:37;16.00;99.90
55173;DHT22;41061;52.822;6.860;2022-07-22T01:10:04;16.10;99.90
55173;DHT22;41061;52.822;6.860;2022-07-22T01:12:31;16.10;99.90
55173;DHT22;41061;52.822;6.860;2022-07-22T01:14:57;16.10;99.90
55173;DHT22;41061;52.822;6.860;2022-07-22T01:17:23;16.10;99.90
55173;DHT22;41061;52.822;6.860;2022-07-22T01:19:50;16.20;99.90
55173;DHT22;41061;52.822;6.860;2022-07-22T01:22:16;16.20;99.90
55173;DHT22;41061;52.822;6.860;2022-07-22T01:24:42;16.30;99.90
55173;DHT22;41061;52.822;6.860;2022-07-22T01:27:08;16.30;99.90
55173;DHT22;41061;52.822;6.860;2022-07-22T01:29:34;16.30;99.90
55173;DHT22;41061;52.822;6.860;2022-07-22T01:32:00;16.30;99.90
55173;DHT22;41061;52.822;6.860;2022-07-22T01:34:25;16.30;99.90
55173;DHT22;41061;52.822;6.860;2022-07-22T01:36:51;16.30;99.90
55173;DHT22;41061;52.822;6.860;2022-07-22T01:39:17;16.30;99.90
55173;DHT22;41061;52.822;6.860;2022-07-22T01:41:43;16.30;99.90
55173;DHT22;41061;52.822;6.860;2022-07-22T01:44:09;16.40;99.90
55173;DHT22;41061;52.822;6.860;2022-07-22T01:46:35;16.30;99.90
55173;DHT22;41061;52.822;6.860;2022-07-22T01:49:01;16.40;99.90
55173;DHT22;41061;52.822;6.860;2022-07-22T01:51:27;16.30;99.90
55173;DHT22;41061;52.822;6.860;2022-07-22T01:53:52;16.40;99.90
55173;DHT22;41061;52.822;6.860;2022-07-22T01:56:18;16.40;99.90
55173;DHT22;41061;52.822;6.860;2022-07-22T01:58:44;16.30;99.90
55173;DHT22;41061;52.822;6.860;2022-07-22T02:01:10;16.40;99.90
55173;DHT22;41061;52.822;6.860;2022-07-22T02:03:36;16.40;99.90
55173;DHT22;41061;52.822;6.860;2022-07-22T02:06:03;16.40;99.90
55173;DHT22;41061;52.822;6.860;2022-07-22T02:08:29;16.40;99.90
55173;DHT22;41061;52.822;6.860;2022-07-22T02:10:54;16.40;99.90
55173;DHT22;41061;52.822;6.860;2022-07-22T02:13:20;16.40;99.90
55173;DHT22;41061;52.822;6.860;2022-07-22T02:15:46;16.40;99.90
55173;DHT22;41061;52.822;6.860;2022-07-22T02:18:17;16.40;99.90
55173;DHT22;41061;52.822;6.860;2022-07-22T02:20:44;16.40;99.90
55173;DHT22;41061;52.822;6.860;2022-07-22T02:23:11;16.40;99.90
55173;DHT22;41061;52.822;6.860;2022-07-22T02:25:37;16.30;99.90
55173;DHT22;41061;52.822;6.860;2022-07-22T02:28:03;16.20;99.90
55173;DHT22;41061;52.822;6.860;2022-07-22T02:30:29;16.30;99.90
55173;DHT22;41061;52.822;6.860;2022-07-22T02:32:56;16.30;99.90
55173;DHT22;41061;52.822;6.860;2022-07-22T02:35:22;16.30;99.90
55173;DHT22;41061;52.822;6.860;2022-07-22T02:37:48;16.30;99.90
55173;DHT22;41061;52.822;6.860;2022-07-22T02:40:13;16.30;99.90
55173;DHT22;41061;52.822;6.860;2022-07-22T02:42:39;16.30;99.90
55173;DHT22;41061;52.822;6.860;2022-07-22T02:45:05;16.30;99.90
55173;DHT22;41061;52.822;6.860;2022-07-22T02:47:31;16.30;99.90
55173;DHT22;41061;52.822;6.860;2022-07-22T02:49:57;16.30;99.90
55173;DHT22;41061;52.822;6.860;2022-07-22T02:52:23;16.30;99.90
55173;DHT22;41061;52.822;6.860;2022-07-22T02:54:48;16.30;99.90
55173;DHT22;41061;52.822;6.860;2022-07-22T02:57:14;16.30;99.90
55173;DHT22;41061;52.822;6.860;2022-07-22T02:59:40;16.30;99.90
55173;DHT22;41061;52.822;6.860;2022-07-22T03:02:05;16.20;99.90
55173;DHT22;41061;52.822;6.860;2022-07-22T03:04:31;16.30;99.90
55173;DHT22;41061;52.822;6.860;2022-07-22T03:06:57;16.20;99.90
55173;DHT22;41061;52.822;6.860;2022-07-22T03:09:22;16.20;99.90
55173;DHT22;41061;52.822;6.860;2022-07-22T03:11:48;16.20;99.90
55173;DHT22;41061;52.822;6.860;2022-07-22T03:14:14;16.20;99.90
55173;DHT22;41061;52.822;6.860;2022-07-22T03:16:41;16.20;99.90
55173;DHT22;41061;52.822;6.860;2022-07-22T03:19:07;16.20;99.90
55173;DHT22;41061;52.822;6.860;2022-07-22T03:21:33;16.20;99.90
55173;DHT22;41061;52.822;6.860;2022-07-22T03:23:58;16.20;99.90
55173;DHT22;41061;52.822;6.860;2022-07-22T03:26:24;16.20;99.90
55173;DHT22;41061;52.822;6.860;2022-07-22T03:28:51;16.20;99.90
55173;DHT22;41061;52.822;6.860;2022-07-22T03:31:17;16.10;99.90
55173;DHT22;41061;52.822;6.860;2022-07-22T03:33:43;16.10;99.90
55173;DHT22;41061;52.822;6.860;2022-07-22T03:36:09;16.20;99.90
55173;DHT22;41061;52.822;6.860;2022-07-22T03:38:36;16.20;99.90
55173;DHT22;41061;52.822;6.860;2022-07-22T03:41:03;16.20;99.90
55173;DHT22;41061;52.822;6.860;2022-07-22T03:43:29;16.20;99.90
55173;DHT22;41061;52.822;6.860;2022-07-22T03:45:55;16.20;99.90
55173;DHT22;41061;52.822;6.860;2022-07-22T03:48:21;16.20;99.90
55173;DHT22;41061;52.822;6.860;2022-07-22T03:50:46;16.20;99.90
55173;DHT22;41061;52.822;6.860;2022-07-22T03:53:12;16.20;99.90
55173;DHT22;41061;52.822;6.860;2022-07-22T03:55:37;16.20;99.90
55173;DHT22;41061;52.822;6.860;2022-07-22T03:58:03;16.20;99.90
55173;DHT22;41061;52.822;6.860;2022-07-22T04:00:29;16.10;99.90
55173;DHT22;41061;52.822;6.860;2022-07-22T04:02:54;16.10;99.90
55173;DHT22;41061;52.822;6.860;2022-07-22T04:05:20;16.10;99.90
55173;DHT22;41061;52.822;6.860;2022-07-22T04:07:46;16.10;99.90
55173;DHT22;41061;52.822;6.860;2022-07-22T04:10:11;16.10;99.90
55173;DHT22;41061;52.822;6.860;2022-07-22T04:12:39;16.10;99.90
55173;DHT22;41061;52.822;6.860;2022-07-22T04:15:05;16.10;99.90
55173;DHT22;41061;52.822;6.860;2022-07-22T04:17:32;16.10;99.90
55173;DHT22;41061;52.822;6.860;2022-07-22T04:19:59;16.10;99.90
55173;DHT22;41061;52.822;6.860;2022-07-22T04:22:29;16.10;99.90
55173;DHT22;41061;52.822;6.860;2022-07-22T04:24:58;16.20;99.90
55173;DHT22;41061;52.822;6.860;2022-07-22T04:27:24;16.10;99.90
55173;DHT22;41061;52.822;6.860;2022-07-22T04:29:49;16.10;99.90
55173;DHT22;41061;52.822;6.860;2022-07-22T04:32:15;16.10;99.90
55173;DHT22;41061;52.822;6.860;2022-07-22T04:34:41;16.10;99.90
55173;DHT22;41061;52.822;6.860;2022-07-22T04:37:07;16.10;99.90
55173;DHT22;41061;52.822;6.860;2022-07-22T04:39:33;16.10;99.90
55173;DHT22;41061;52.822;6.860;2022-07-22T04:41:59;16.10;99.90
55173;DHT22;41061;52.822;6.860;2022-07-22T04:44:24;16.10;99.90
55173;DHT22;41061;52.822;6.860;2022-07-22T04:46:50;16.20;99.90
55173;DHT22;41061;52.822;6.860;2022-07-22T04:49:16;16.20;99.90
55173;DHT22;41061;52.822;6.860;2022-07-22T04:51:41;16.20;99.90
55173;DHT22;41061;52.822;6.860;2022-07-22T04:54:07;16.20;99.90
55173;DHT22;41061;52.822;6.860;2022-07-22T04:56:32;16.30;99.90
55173;DHT22;41061;52.822;6.860;2022-07-22T04:58:58;16.30;99.90
55173;DHT22;41061;52.822;6.860;2022-07-22T05:01:24;16.30;99.90
55173;DHT22;41061;52.822;6.860;2022-07-22T05:03:49;16.30;99.90
55173;DHT22;41061;52.822;6.860;2022-07-22T05:06:17;16.30;99.90
55173;DHT22;41061;52.822;6.860;2022-07-22T05:08:43;16.30;99.90
55173;DHT22;41061;52.822;6.860;2022-07-22T05:11:09;16.30;99.90
55173;DHT22;41061;52.822;6.860;2022-07-22T05:13:35;16.30;99.90
55173;DHT22;41061;52.822;6.860;2022-07-22T05:16:04;16.30;99.90
55173;DHT22;41061;52.822;6.860;2022-07-22T05:18:31;16.30;99.90
55173;DHT22;41061;52.822;6.860;2022-07-22T05:20:56;16.30;99.90
55173;DHT22;41061;52.822;6.860;2022-07-22T05:23:22;16.30;99.90
55173;DHT22;41061;52.822;6.860;2022-07-22T05:25:48;16.30;99.90
55173;DHT22;41061;52.822;6.860;2022-07-22T05:28:14;16.30;99.90
55173;DHT22;41061;52.822;6.860;2022-07-22T05:30:39;16.30;99.90
55173;DHT22;41061;52.822;6.860;2022-07-22T05:33:05;16.30;99.90
55173;DHT22;41061;52.822;6.860;2022-07-22T05:35:31;16.40;99.90
55173;DHT22;41061;52.822;6.860;2022-07-22T05:37:57;16.40;99.90
55173;DHT22;41061;52.822;6.860;2022-07-22T05:40:22;16.50;99.90
55173;DHT22;41061;52.822;6.860;2022-07-22T05:42:48;16.50;99.90
55173;DHT22;41061;52.822;6.860;2022-07-22T05:45:14;16.50;99.90
55173;DHT22;41061;52.822;6.860;2022-07-22T05:47:39;16.50;99.90
55173;DHT22;41061;52.822;6.860;2022-07-22T05:50:05;16.60;99.90
55173;DHT22;41061;52.822;6.860;2022-07-22T05:52:31;16.60;99.90
55173;DHT22;41061;52.822;6.860;2022-07-22T05:54:59;16.60;99.90
55173;DHT22;41061;52.822;6.860;2022-07-22T05:57:25;16.60;99.90
55173;DHT22;41061;52.822;6.860;2022-07-22T05:59:51;16.60;99.90
55173;DHT22;41061;52.822;6.860;2022-07-22T06:02:17;16.60;99.90
55173;DHT22;41061;52.822;6.860;2022-07-22T06:04:43;16.60;99.90
55173;DHT22;41061;52.822;6.860;2022-07-22T06:07:09;16.60;99.90
55173;DHT22;41061;52.822;6.860;2022-07-22T06:09:34;16.60;99.90
55173;DHT22;41061;52.822;6.860;2022-07-22T06:12:00;16.60;99.90
55173;DHT22;41061;52.822;6.860;2022-07-22T06:14:25;16.70;99.90
55173;DHT22;41061;52.822;6.860;2022-07-22T06:16:51;16.70;99.90
55173;DHT22;41061;52.822;6.860;2022-07-22T06:19:17;16.70;99.90
55173;DHT22;41061;52.822;6.860;2022-07-22T06:21:42;16.70;99.90
55173;DHT22;41061;52.822;6.860;2022-07-22T06:24:08;16.80;99.90
55173;DHT22;41061;52.822;6.860;2022-07-22T06:26:34;16.80;99.90
55173;DHT22;41061;52.822;6.860;2022-07-22T06:29:00;16.90;99.90
55173;DHT22;41061;52.822;6.860;2022-07-22T06:31:26;16.90;99.90
55173;DHT22;41061;52.822;6.860;2022-07-22T06:33:51;16.90;99.90
55173;DHT22;41061;52.822;6.860;2022-07-22T06:36:17;16.90;99.90
55173;DHT22;41061;52.822;6.860;2022-07-22T06:38:44;17.00;99.90
55173;DHT22;41061;52.822;6.860;2022-07-22T06:41:10;17.00;99.90
55173;DHT22;41061;52.822;6.860;2022-07-22T06:43:36;16.90;99.90
55173;DHT22;41061;52.822;6.860;2022-07-22T06:46:02;16.90;99.90
55173;DHT22;41061;52.822;6.860;2022-07-22T06:48:27;17.00;99.90
55173;DHT22;41061;52.822;6.860;2022-07-22T06:50:53;17.10;99.90
55173;DHT22;41061;52.822;6.860;2022-07-22T06:53:20;17.10;99.90
55173;DHT22;41061;52.822;6.860;2022-07-22T06:55:45;17.10;99.90
55173;DHT22;41061;52.822;6.860;2022-07-22T06:58:11;17.10;99.90
55173;DHT22;41061;52.822;6.860;2022-07-22T07:00:37;17.10;99.90
55173;DHT22;41061;52.822;6.860;2022-07-22T07:03:03;17.10;99.90
55173;DHT22;41061;52.822;6.860;2022-07-22T07:05:28;17.20;99.90
55173;DHT22;41061;52.822;6.860;2022-07-22T07:07:55;17.20;99.90
55173;DHT22;41061;52.822;6.860;2022-07-22T07:10:21;17.20;99.90
55173;DHT22;41061;52.822;6.860;2022-07-22T07:12:47;17.20;99.90
55173;DHT22;41061;52.822;6.860;2022-07-22T07:15:12;17.20;99.90
55173;DHT22;41061;52.822;6.860;2022-07-22T07:17:38;17.30;99.90
55173;DHT22;41061;52.822;6.860;2022-07-22T07:20:05;17.30;99.90
55173;DHT22;41061;52.822;6.860;2022-07-22T07:22:31;17.40;99.90
55173;DHT22;41061;52.822;6.860;2022-07-22T07:25:02;17.50;99.90
55173;DHT22;41061;52.822;6.860;2022-07-22T07:27:28;17.50;99.90
55173;DHT22;41061;52.822;6.860;2022-07-22T07:29:54;17.60;99.90
55173;DHT22;41061;52.822;6.860;2022-07-22T07:32:19;17.60;99.90
55173;DHT22;41061;52.822;6.860;2022-07-22T07:34:45;17.70;99.90
55173;DHT22;41061;52.822;6.860;2022-07-22T07:37:11;17.70;99.90
55173;DHT22;41061;52.822;6.860;2022-07-22T07:39:36;17.70;99.90
55173;DHT22;41061;52.822;6.860;2022-07-22T07:42:03;17.80;99.90
55173;DHT22;41061;52.822;6.860;2022-07-22T07:44:29;17.90;99.90
55173;DHT22;41061;52.822;6.860;2022-07-22T07:46:54;17.90;99.90
55173;DHT22;41061;52.822;6.860;2022-07-22T07:49:20;18.00;99.90
55173;DHT22;41061;52.822;6.860;2022-07-22T07:51:45;17.90;99.90
55173;DHT22;41061;52.822;6.860;2022-07-22T07:54:11;17.90;99.90
55173;DHT22;41061;52.822;6.860;2022-07-22T07:56:37;17.90;99.90
55173;DHT22;41061;52.822;6.860;2022-07-22T07:59:02;17.90;99.90
55173;DHT22;41061;52.822;6.860;2022-07-22T08:01:28;18.00;99.90
55173;DHT22;41061;52.822;6.860;2022-07-22T08:03:54;18.00;99.90
55173;DHT22;41061;52.822;6.860;2022-07-22T08:06:19;18.20;99.90
55173;DHT22;41061;52.822;6.860;2022-07-22T08:08:45;18.20;99.90
55173;DHT22;41061;52.822;6.860;2022-07-22T08:11:11;18.20;99.90
55173;DHT22;41061;52.822;6.860;2022-07-22T08:13:37;18.20;99.90
55173;DHT22;41061;52.822;6.860;2022-07-22T08:16:03;18.30;99.90
55173;DHT22;41061;52.822;6.860;2022-07-22T08:18:29;18.30;99.90
55173;DHT22;41061;52.822;6.860;2022-07-22T08:20:55;18.40;99.90
55173;DHT22;41061;52.822;6.860;2022-07-22T08:23:21;18.40;99.90
55173;DHT22;41061;52.822;6.860;2022-07-22T08:25:47;18.40;99.90
55173;DHT22;41061;52.822;6.860;2022-07-22T08:28:13;18.50;99.90
55173;DHT22;41061;52.822;6.860;2022-07-22T08:30:39;18.50;99.90
55173;DHT22;41061;52.822;6.860;2022-07-22T08:33:06;18.60;99.90
55173;DHT22;41061;52.822;6.860;2022-07-22T08:35:32;18.70;99.90
55173;DHT22;41061;52.822;6.860;2022-07-22T08:37:58;18.70;99.90
55173;DHT22;41061;52.822;6.860;2022-07-22T08:40:24;18.70;99.90
55173;DHT22;41061;52.822;6.860;2022-07-22T08:42:50;18.70;99.90
55173;DHT22;41061;52.822;6.860;2022-07-22T08:45:17;18.70;99.90
55173;DHT22;41061;52.822;6.860;2022-07-22T08:47:51;18.80;99.90
55173;DHT22;41061;52.822;6.860;2022-07-22T08:50:17;18.80;99.90
55173;DHT22;41061;52.822;6.860;2022-07-22T08:52:43;18.80;99.90
55173;DHT22;41061;52.822;6.860;2022-07-22T08:55:09;18.80;99.90
55173;DHT22;41061;52.822;6.860;2022-07-22T08:57:35;18.80;99.90
55173;DHT22;41061;52.822;6.860;2022-07-22T09:00:09;18.80;99.90
55173;DHT22;41061;52.822;6.860;2022-07-22T09:02:38;18.90;99.90
55173;DHT22;41061;52.822;6.860;2022-07-22T09:05:06;18.90;99.90
55173;DHT22;41061;52.822;6.860;2022-07-22T09:07:37;19.00;99.90
55173;DHT22;41061;52.822;6.860;2022-07-22T09:10:09;19.10;99.90
55173;DHT22;41061;52.822;6.860;2022-07-22T09:12:50;19.10;99.90
55173;DHT22;41061;52.822;6.860;2022-07-22T09:17:53;19.20;99.90
55173;DHT22;41061;52.822;6.860;2022-07-22T09:20:19;19.20;99.90
55173;DHT22;41061;52.822;6.860;2022-07-22T09:22:47;19.20;99.90
55173;DHT22;41061;52.822;6.860;2022-07-22T09:25:22;19.30;99.90
55173;DHT22;41061;52.822;6.860;2022-07-22T09:27:49;19.20;99.90
55173;DHT22;41061;52.822;6.860;2022-07-22T09:30:18;19.30;99.90
55173;DHT22;41061;52.822;6.860;2022-07-22T09:32:45;19.30;99.90
55173;DHT22;41061;52.822;6.860;2022-07-22T09:35:11;19.30;99.90
55173;DHT22;41061;52.822;6.860;2022-07-22T09:37:47;19.30;99.90
55173;DHT22;41061;52.822;6.860;2022-07-22T09:40:20;19.30;99.90
55173;DHT22;41061;52.822;6.860;2022-07-22T09:42:54;19.10;99.90
55173;DHT22;41061;52.822;6.860;2022-07-22T09:45:22;19.10;99.90
55173;DHT22;41061;52.822;6.860;2022-07-22T09:47:49;19.00;99.90
55173;DHT22;41061;52.822;6.860;2022-07-22T09:50:16;18.90;99.90
55173;DHT22;41061;52.822;6.860;2022-07-22T09:52:42;18.90;99.90
55173;DHT22;41061;52.822;6.860;2022-07-22T09:55:08;18.90;99.90
55173;DHT22;41061;52.822;6.860;2022-07-22T09:57:34;18.90;99.90
55173;DHT22;41061;52.822;6.860;2022-07-22T10:00:01;18.90;99.90
55173;DHT22;41061;52.822;6.860;2022-07-22T10:02:27;18.80;99.90
55173;DHT22;41061;52.822;6.860;2022-07-22T10:04:55;18.90;99.90
55173;DHT22;41061;52.822;6.860;2022-07-22T10:07:23;19.00;99.90
55173;DHT22;41061;52.822;6.860;2022-07-22T10:09:50;19.10;99.90
55173;DHT22;41061;52.822;6.860;2022-07-22T10:12:17;19.20;99.90
55173;DHT22;41061;52.822;6.860;2022-07-22T10:14:44;19.40;99.90
55173;DHT22;41061;52.822;6.860;2022-07-22T10:17:15;19.60;99.90
55173;DHT22;41061;52.822;6.860;2022-07-22T10:19:41;19.70;99.90
55173;DHT22;41061;52.822;6.860;2022-07-22T10:25:06;19.80;99.90
55173;DHT22;41061;52.822;6.860;2022-07-22T10:30:19;20.00;99.90
55173;DHT22;41061;52.822;6.860;2022-07-22T10:32:45;20.10;99.90
55173;DHT22;41061;52.822;6.860;2022-07-22T10:37:37;20.00;99.90
55173;DHT22;41061;52.822;6.860;2022-07-22T10:45:45;20.10;99.90
55173;DHT22;41061;52.822;6.860;2022-07-22T10:48:14;20.10;99.90
55173;DHT22;41061;52.822;6.860;2022-07-22T10:50:42;20.10;99.90
55173;DHT22;41061;52.822;6.860;2022-07-22T10:53:12;20.10;99.90
55173;DHT22;41061;52.822;6.860;2022-07-22T10:56:30;20.20;99.90
55173;DHT22;41061;52.822;6.860;2022-07-22T10:58:51;20.10;99.90
55173;DHT22;41061;52.822;6.860;2022-07-22T11:01:20;20.10;99.90
55173;DHT22;41061;52.822;6.860;2022-07-22T11:03:48;20.00;99.90
55173;DHT22;41061;52.822;6.860;2022-07-22T11:08:55;20.00;99.90
55173;DHT22;41061;52.822;6.860;2022-07-22T11:11:52;19.90;99.90
55173;DHT22;41061;52.822;6.860;2022-07-22T11:14:28;19.80;99.90
55173;DHT22;41061;52.822;6.860;2022-07-22T11:17:03;19.70;99.90
55173;DHT22;41061;52.822;6.860;2022-07-22T11:19:32;19.70;99.90
55173;DHT22;41061;52.822;6.860;2022-07-22T11:22:04;19.60;99.90
55173;DHT22;41061;52.822;6.860;2022-07-22T11:24:31;19.60;99.90
55173;DHT22;41061;52.822;6.860;2022-07-22T11:26:58;19.60;99.90
55173;DHT22;41061;52.822;6.860;2022-07-22T11:29:30;19.60;99.90
55173;DHT22;41061;52.822;6.860;2022-07-22T11:32:00;19.60;99.90
55173;DHT22;41061;52.822;6.860;2022-07-22T11:34:26;19.50;99.90
55173;DHT22;41061;52.822;6.860;2022-07-22T11:36:53;19.50;99.90
55173;DHT22;41061;52.822;6.860;2022-07-22T11:39:21;19.40;99.90
55173;DHT22;41061;52.822;6.860;2022-07-22T11:41:48;19.50;99.90
55173;DHT22;41061;52.822;6.860;2022-07-22T11:44:21;19.50;99.90
55173;DHT22;41061;52.822;6.860;2022-07-22T11:46:48;19.50;99.90
55173;DHT22;41061;52.822;6.860;2022-07-22T11:49:18;19.40;99.90
55173;DHT22;41061;52.822;6.860;2022-07-22T11:51:45;19.40;99.90
55173;DHT22;41061;52.822;6.860;2022-07-22T11:54:11;19.40;99.90
55173;DHT22;41061;52.822;6.860;2022-07-22T11:56:37;19.40;99.90
55173;DHT22;41061;52.822;6.860;2022-07-22T11:59:04;19.50;99.90
55173;DHT22;41061;52.822;6.860;2022-07-22T12:01:32;19.50;99.90
55173;DHT22;41061;52.822;6.860;2022-07-22T12:04:04;19.60;99.90
55173;DHT22;41061;52.822;6.860;2022-07-22T12:06:32;19.60;99.90
55173;DHT22;41061;52.822;6.860;2022-07-22T12:09:11;19.50;99.90
55173;DHT22;41061;52.822;6.860;2022-07-22T12:11:39;19.40;99.90
55173;DHT22;41061;52.822;6.860;2022-07-22T12:14:08;19.40;99.90
55173;DHT22;41061;52.822;6.860;2022-07-22T12:16:36;19.50;99.90
55173;DHT22;41061;52.822;6.860;2022-07-22T12:19:12;19.60;99.90
55173;DHT22;41061;52.822;6.860;2022-07-22T12:22:12;19.70;99.90
55173;DHT22;41061;52.822;6.860;2022-07-22T12:24:45;19.70;99.90
55173;DHT22;41061;52.822;6.860;2022-07-22T12:27:17;19.60;99.90
55173;DHT22;41061;52.822;6.860;2022-07-22T12:29:45;19.50;99.90
55173;DHT22;41061;52.822;6.860;2022-07-22T12:34:58;19.70;99.90
55173;DHT22;41061;52.822;6.860;2022-07-22T12:37:27;19.70;99.90
55173;DHT22;41061;52.822;6.860;2022-07-22T12:42:31;19.70;99.90
55173;DHT22;41061;52.822;6.860;2022-07-22T12:45:08;19.70;99.90
55173;DHT22;41061;52.822;6.860;2022-07-22T12:47:42;19.80;99.90
55173;DHT22;41061;52.822;6.860;2022-07-22T12:50:26;19.90;99.90
55173;DHT22;41061;52.822;6.860;2022-07-22T12:52:55;19.90;99.90
55173;DHT22;41061;52.822;6.860;2022-07-22T12:55:21;19.90;99.90
55173;DHT22;41061;52.822;6.860;2022-07-22T12:57:46;20.00;99.90
55173;DHT22;41061;52.822;6.860;2022-07-22T13:00:23;20.10;99.90
55173;DHT22;41061;52.822;6.860;2022-07-22T13:02:50;20.30;99.90
55173;DHT22;41061;52.822;6.860;2022-07-22T13:05:16;20.40;99.90
55173;DHT22;41061;52.822;6.860;2022-07-22T13:07:42;20.40;99.90
55173;DHT22;41061;52.822;6.860;2022-07-22T13:10:09;20.50;99.90
55173;DHT22;41061;52.822;6.860;2022-07-22T13:12:35;20.60;99.90
55173;DHT22;41061;52.822;6.860;2022-07-22T13:15:00;20.70;99.90
55173;DHT22;41061;52.822;6.860;2022-07-22T13:17:26;20.60;99.90
55173;DHT22;41061;52.822;6.860;2022-07-22T13:19:52;20.40;99.90
55173;DHT22;41061;52.822;6.860;2022-07-22T13:22:17;20.30;99.90
55173;DHT22;41061;52.822;6.860;2022-07-22T13:24:43;20.30;99.90
55173;DHT22;41061;52.822;6.860;2022-07-22T13:27:08;20.20;99.90
55173;DHT22;41061;52.822;6.860;2022-07-22T13:29:34;20.20;99.90
55173;DHT22;41061;52.822;6.860;2022-07-22T13:32:00;20.20;99.90
55173;DHT22;41061;52.822;6.860;2022-07-22T13:34:26;20.20;99.90
55173;DHT22;41061;52.822;6.860;2022-07-22T13:36:51;20.30;99.90
55173;DHT22;41061;52.822;6.860;2022-07-22T13:39:17;20.30;99.90
55173;DHT22;41061;52.822;6.860;2022-07-22T13:41:43;20.30;99.90
55173;DHT22;41061;52.822;6.860;2022-07-22T13:44:08;20.30;99.90
55173;DHT22;41061;52.822;6.860;2022-07-22T13:46:35;20.40;99.90
55173;DHT22;41061;52.822;6.860;2022-07-22T13:49:01;20.30;99.90
55173;DHT22;41061;52.822;6.860;2022-07-22T13:51:27;20.40;99.90
55173;DHT22;41061;52.822;6.860;2022-07-22T13:53:53;20.40;99.90
55173;DHT22;41061;52.822;6.860;2022-07-22T13:56:18;20.40;99.90
55173;DHT22;41061;52.822;6.860;2022-07-22T13:58:45;20.40;99.90
55173;DHT22;41061;52.822;6.860;2022-07-22T14:01:11;20.60;99.90
55173;DHT22;41061;52.822;6.860;2022-07-22T14:03:37;20.70;99.90
55173;DHT22;41061;52.822;6.860;2022-07-22T14:06:04;20.80;99.90
55173;DHT22;41061;52.822;6.860;2022-07-22T14:08:30;20.90;99.90
55173;DHT22;41061;52.822;6.860;2022-07-22T14:10:56;21.00;99.90
55173;DHT22;41061;52.822;6.860;2022-07-22T14:13:22;21.00;99.90
55173;DHT22;41061;52.822;6.860;2022-07-22T14:15:48;20.90;99.90
55173;DHT22;41061;52.822;6.860;2022-07-22T14:18:13;20.80;99.90
55173;DHT22;41061;52.822;6.860;2022-07-22T14:20:39;20.50;99.90
55173;DHT22;41061;52.822;6.860;2022-07-22T14:23:06;20.40;99.90
55173;DHT22;41061;52.822;6.860;2022-07-22T14:25:33;20.40;99.90
55173;DHT22;41061;52.822;6.860;2022-07-22T14:27:58;20.40;99.90
55173;DHT22;41061;52.822;6.860;2022-07-22T14:30:24;20.40;99.90
55173;DHT22;41061;52.822;6.860;2022-07-22T14:32:50;20.40;99.90
55173;DHT22;41061;52.822;6.860;2022-07-22T14:35:16;20.20;99.90
55173;DHT22;41061;52.822;6.860;2022-07-22T14:37:41;20.20;99.90
55173;DHT22;41061;52.822;6.860;2022-07-22T14:40:08;20.20;99.90
55173;DHT22;41061;52.822;6.860;2022-07-22T14:42:34;20.20;99.90
55173;DHT22;41061;52.822;6.860;2022-07-22T14:44:59;20.10;99.90
55173;DHT22;41061;52.822;6.860;2022-07-22T14:47:25;20.10;99.90
55173;DHT22;41061;52.822;6.860;2022-07-22T14:49:52;19.90;99.90
55173;DHT22;41061;52.822;6.860;2022-07-22T14:52:17;19.90;99.90
55173;DHT22;41061;52.822;6.860;2022-07-22T14:54:43;20.00;99.90
55173;DHT22;41061;52.822;6.860;2022-07-22T14:57:09;19.90;99.90
55173;DHT22;41061;52.822;6.860;2022-07-22T14:59:35;19.90;99.90
55173;DHT22;41061;52.822;6.860;2022-07-22T15:02:00;19.90;99.90
55173;DHT22;41061;52.822;6.860;2022-07-22T15:04:26;19.90;99.90
55173;DHT22;41061;52.822;6.860;2022-07-22T15:06:52;19.90;99.90
55173;DHT22;41061;52.822;6.860;2022-07-22T15:09:17;19.90;99.90
55173;DHT22;41061;52.822;6.860;2022-07-22T15:11:43;19.90;99.90
55173;DHT22;41061;52.822;6.860;2022-07-22T15:14:09;19.90;99.90
55173;DHT22;41061;52.822;6.860;2022-07-22T15:16:34;19.90;99.90
55173;DHT22;41061;52.822;6.860;2022-07-22T15:19:00;20.00;99.90
55173;DHT22;41061;52.822;6.860;2022-07-22T15:21:26;19.90;99.90
55173;DHT22;41061;52.822;6.860;2022-07-22T15:23:52;19.90;99.90
55173;DHT22;41061;52.822;6.860;2022-07-22T15:26:17;20.00;99.90
55173;DHT22;41061;52.822;6.860;2022-07-22T15:28:43;20.00;99.90
55173;DHT22;41061;52.822;6.860;2022-07-22T15:31:09;20.00;99.90
55173;DHT22;41061;52.822;6.860;2022-07-22T15:33:35;19.90;99.90
55173;DHT22;41061;52.822;6.860;2022-07-22T15:36:00;20.00;99.90
55173;DHT22;41061;52.822;6.860;2022-07-22T15:38:26;20.00;99.90
55173;DHT22;41061;52.822;6.860;2022-07-22T15:40:52;20.00;99.90
55173;DHT22;41061;52.822;6.860;2022-07-22T15:43:17;19.90;99.90
55173;DHT22;41061;52.822;6.860;2022-07-22T15:45:43;19.90;99.90
55173;DHT22;41061;52.822;6.860;2022-07-22T15:48:09;19.90;99.90
55173;DHT22;41061;52.822;6.860;2022-07-22T15:50:35;19.90;99.90
55173;DHT22;41061;52.822;6.860;2022-07-22T15:53:00;20.00;99.90